Time;durP1;ratioP1;P1;durP2;ratioP2;P2;SDS_P1;SDS_P2;PMS_P1;PMS_P2;Temp;Humidity;BMP_temperature;BMP_pressure;BME280_temperature;BME280_humidity;BME280_pressure;Samples;Min_cycle;Max_cycle;Signal;HPM_P1;HPM_P2
2023/12/16 00:00:57;;;;;;;;;;;;;;;19.92;51.01;98072.98;624134;227;64409;-71
2023/12/16 00:03:22;;;;;;;;;;;;;;;19.91;51.01;98084.67;624059;227;62974;-71
2023/12/16 00:05:50;;;;;;;;;;;;;;;19.92;50.96;98080.98;624183;227;63329;-72
2023/12/16 00:08:17;;;;;;;;;;;;;;;19.90;51.01;98081.20;624229;227;65530;-72
2023/12/16 00:10:45;;;;;;;;;;;;;;;19.91;50.98;98092.67;624195;227;65047;-72
2023/12/16 00:13:13;;;;;;;;;;;;;;;19.91;51.03;98095.34;624165;227;64599;-71
2023/12/16 00:15:40;;;;;;;;;;;;;;;19.92;51.01;98097.79;624214;227;65402;-72
2023/12/16 00:18:08;;;;;;;;;;;;;;;19.91;51.02;98092.67;624204;227;66079;-71
2023/12/16 00:20:35;;;;;;;;;;;;;;;19.91;50.97;98093.48;624220;227;64680;-71
2023/12/16 00:23:03;;;;;;;;;;;;;;;19.92;50.97;98099.66;624166;227;65313;-71
2023/12/16 00:25:30;;;;;;;;;;;;;;;19.92;51.00;98099.66;624214;227;62894;-72
2023/12/16 00:27:58;;;;;;;;;;;;;;;19.90;50.98;98107.08;624157;227;64555;-72
2023/12/16 00:30:26;;;;;;;;;;;;;;;19.93;51.00;98111.94;624183;227;65383;-72
2023/12/16 00:32:53;;;;;;;;;;;;;;;19.93;51.02;98111.94;624245;227;62906;-72
2023/12/16 00:35:21;;;;;;;;;;;;;;;19.93;51.02;98111.94;624198;227;62127;-72
2023/12/16 00:37:48;;;;;;;;;;;;;;;19.93;51.02;98117.27;624201;227;62902;-71
2023/12/16 00:40:16;;;;;;;;;;;;;;;19.93;51.00;98122.61;624170;227;62782;-72
2023/12/16 00:42:43;;;;;;;;;;;;;;;19.94;50.98;98116.21;624189;227;62479;-72
2023/12/16 00:45:10;;;;;;;;;;;;;;;19.93;50.98;98123.41;624223;227;63049;-72
2023/12/16 00:47:39;;;;;;;;;;;;;;;19.93;50.95;98125.27;624169;227;63260;-72
2023/12/16 00:50:08;;;;;;;;;;;;;;;19.91;51.01;98124.69;624184;227;62672;-72
2023/12/16 00:52:36;;;;;;;;;;;;;;;19.91;51.01;98130.03;624176;227;63061;-71
2023/12/16 00:55:03;;;;;;;;;;;;;;;19.91;50.97;98127.36;624123;227;62912;-71
2023/12/16 00:57:31;;;;;;;;;;;;;;;19.89;50.96;98121.47;624199;227;63340;-71
2023/12/16 00:59:58;;;;;;;;;;;;;;;19.92;50.94;98126.33;624219;227;65382;-71
2023/12/16 01:02:26;;;;;;;;;;;;;;;19.92;50.94;98127.14;624215;227;62641;-71
2023/12/16 01:04:53;;;;;;;;;;;;;;;19.94;50.92;98129.55;624229;227;65543;-71
2023/12/16 01:07:21;;;;;;;;;;;;;;;19.91;50.98;98122.83;624165;227;64747;-71
2023/12/16 01:09:51;;;;;;;;;;;;;;;19.89;50.99;98122.28;624196;227;64787;-71
2023/12/16 01:12:18;;;;;;;;;;;;;;;19.91;51.03;98128.16;624232;227;62676;-71
2023/12/16 01:14:46;;;;;;;;;;;;;;;19.90;50.97;98123.08;624202;227;63077;-71
2023/12/16 01:17:13;;;;;;;;;;;;;;;19.92;50.95;98129.80;624204;227;63702;-72
2023/12/16 01:19:41;;;;;;;;;;;;;;;19.91;50.95;98130.03;624195;227;62435;-72
2023/12/16 01:22:08;;;;;;;;;;;;;;;19.91;50.98;98143.37;624180;227;62853;-72
2023/12/16 01:24:37;;;;;;;;;;;;;;;19.91;50.95;98140.70;624270;227;63721;-71
2023/12/16 01:27:05;;;;;;;;;;;;;;;19.92;50.97;98148.48;624156;227;65411;-71
2023/12/16 01:29:32;;;;;;;;;;;;;;;19.91;50.95;98140.70;624202;227;65394;-71
2023/12/16 01:32:00;;;;;;;;;;;;;;;19.91;50.96;98140.70;624198;227;64936;-72
2023/12/16 01:34:27;;;;;;;;;;;;;;;19.91;50.93;98144.17;624127;227;64590;-71
2023/12/16 01:36:55;;;;;;;;;;;;;;;19.90;50.96;98145.23;624203;227;66416;-71
2023/12/16 01:39:22;;;;;;;;;;;;;;;19.89;50.95;98153.48;624188;227;65018;-71
2023/12/16 01:41:50;;;;;;;;;;;;;;;19.90;50.97;98163.91;624151;227;62415;-72
2023/12/16 01:44:17;;;;;;;;;;;;;;;19.93;51.00;98165.29;624184;227;62890;-72
2023/12/16 01:46:45;;;;;;;;;;;;;;;19.91;51.00;98159.38;624183;227;63030;-71
2023/12/16 01:49:12;;;;;;;;;;;;;;;19.93;50.96;98162.63;624166;227;62563;-71
2023/12/16 01:51:40;;;;;;;;;;;;;;;19.90;50.98;98163.91;624105;227;65552;-71
2023/12/16 01:54:08;;;;;;;;;;;;;;;19.90;51.02;98169.24;623371;227;64763;-71
2023/12/16 01:56:37;;;;;;;;;;;;;;;19.92;50.97;98182.36;618947;229;64569;-71
2023/12/16 01:59:06;;;;;;;;;;;;;;;19.92;50.97;98171.69;618943;229;65403;-71
2023/12/16 02:01:34;;;;;;;;;;;;;;;19.92;51.00;98175.16;618837;229;63542;-71
2023/12/16 02:04:01;;;;;;;;;;;;;;;19.92;50.97;98185.83;618991;229;63495;-71
2023/12/16 02:06:29;;;;;;;;;;;;;;;19.89;50.97;98180.97;618933;229;66184;-71
2023/12/16 02:08:56;;;;;;;;;;;;;;;19.90;50.94;98181.77;618932;229;66085;-71
2023/12/16 02:11:24;;;;;;;;;;;;;;;19.89;50.96;98188.16;618923;229;64788;-71
2023/12/16 02:13:51;;;;;;;;;;;;;;;19.91;51.00;98200.20;618923;229;63104;-71
2023/12/16 02:16:19;;;;;;;;;;;;;;;19.90;50.98;98200.45;618947;229;64975;-71
2023/12/16 02:18:46;;;;;;;;;;;;;;;19.91;50.95;98199.39;618951;229;62531;-71
2023/12/16 02:21:14;;;;;;;;;;;;;;;19.91;51.01;98202.06;618907;229;62710;-71
2023/12/16 02:23:41;;;;;;;;;;;;;;;19.91;51.01;98210.06;618921;229;62956;-71
2023/12/16 02:26:09;;;;;;;;;;;;;;;19.92;51.04;98217.84;618901;229;64550;-71
2023/12/16 02:28:36;;;;;;;;;;;;;;;19.92;51.03;98217.84;618898;229;66563;-71
2023/12/16 02:31:04;;;;;;;;;;;;;;;19.91;51.02;98223.41;618943;229;64028;-70
2023/12/16 02:33:31;;;;;;;;;;;;;;;19.90;50.99;98219.13;618952;229;64574;-70
2023/12/16 02:36:00;;;;;;;;;;;;;;;19.92;50.98;98227.71;618912;229;65213;-70
2023/12/16 02:38:28;;;;;;;;;;;;;;;19.88;50.96;98210.54;618935;229;64982;-71
2023/12/16 02:40:55;;;;;;;;;;;;;;;19.91;51.00;98226.07;618921;229;63461;-71
2023/12/16 02:43:23;;;;;;;;;;;;;;;19.91;51.00;98229.55;618952;229;63003;-71
2023/12/16 02:45:50;;;;;;;;;;;;;;;19.90;50.99;98230.60;618941;229;62987;-71
2023/12/16 02:48:18;;;;;;;;;;;;;;;19.93;50.97;98234.66;618950;229;64586;-71
2023/12/16 02:50:45;;;;;;;;;;;;;;;19.91;51.01;98236.74;618895;229;63900;-71
2023/12/16 02:53:13;;;;;;;;;;;;;;;19.90;51.03;98241.27;618949;229;64907;-71
2023/12/16 02:55:40;;;;;;;;;;;;;;;19.91;50.96;98247.41;618894;227;64594;-71
2023/12/16 02:58:08;;;;;;;;;;;;;;;19.91;51.02;98247.41;618918;229;65203;-71
2023/12/16 03:00:36;;;;;;;;;;;;;;;19.88;50.98;98255.89;618931;229;62810;-71
2023/12/16 03:03:03;;;;;;;;;;;;;;;19.91;51.01;98258.09;618941;229;64529;-71
2023/12/16 03:05:31;;;;;;;;;;;;;;;19.90;50.99;98251.14;618946;229;65562;-71
2023/12/16 03:07:58;;;;;;;;;;;;;;;19.90;51.03;98262.62;619033;229;64707;-71
2023/12/16 03:10:26;;;;;;;;;;;;;;;19.89;50.96;98263.67;618932;229;64691;-70
2023/12/16 03:12:53;;;;;;;;;;;;;;;19.91;51.01;98268.76;618929;229;63014;-71
2023/12/16 03:15:21;;;;;;;;;;;;;;;19.91;51.00;98274.09;618957;229;65572;-71
2023/12/16 03:17:48;;;;;;;;;;;;;;;19.89;50.98;98274.34;618948;229;64662;-71
2023/12/16 03:20:16;;;;;;;;;;;;;;;19.90;51.00;98272.48;619008;229;65433;-71
2023/12/16 03:22:44;;;;;;;;;;;;;;;19.89;50.96;98271.67;618906;229;62957;-71
2023/12/16 03:25:11;;;;;;;;;;;;;;;19.90;50.88;98285.82;618963;229;64470;-71
2023/12/16 03:27:39;;;;;;;;;;;;;;;19.90;50.96;98294.63;618966;229;65656;-71
2023/12/16 03:30:07;;;;;;;;;;;;;;;19.92;50.93;98302.42;618930;229;64964;-71
2023/12/16 03:32:34;;;;;;;;;;;;;;;19.91;50.86;98303.44;619027;229;64765;-71
2023/12/16 03:35:02;;;;;;;;;;;;;;;19.92;50.97;98305.08;619000;229;65053;-71
2023/12/16 03:37:30;;;;;;;;;;;;;;;19.90;50.98;98301.83;618926;229;65034;-71
2023/12/16 03:39:57;;;;;;;;;;;;;;;19.91;50.97;98311.45;618926;229;64776;-71
2023/12/16 03:42:24;;;;;;;;;;;;;;;19.92;50.96;98313.09;618922;229;65733;-72
2023/12/16 03:44:52;;;;;;;;;;;;;;;19.90;50.95;98313.31;618948;229;65029;-72
2023/12/16 03:47:19;;;;;;;;;;;;;;;19.90;50.95;98309.83;619007;229;62450;-72
2023/12/16 03:49:47;;;;;;;;;;;;;;;19.89;51.02;98310.89;618926;229;63044;-72
2023/12/16 03:52:14;;;;;;;;;;;;;;;19.91;50.97;98316.78;618946;229;62984;-72
2023/12/16 03:54:42;;;;;;;;;;;;;;;19.91;50.89;98320.25;618912;227;62603;-72
2023/12/16 03:57:09;;;;;;;;;;;;;;;19.89;50.94;98310.89;618967;229;63171;-72
2023/12/16 03:59:37;;;;;;;;;;;;;;;19.90;50.96;98315.17;619022;229;62986;-72
2023/12/16 04:02:04;;;;;;;;;;;;;;;19.91;51.00;98317.59;618913;229;63399;-72
2023/12/16 04:04:32;;;;;;;;;;;;;;;19.87;50.96;98316.44;618896;229;65427;-72
2023/12/16 04:07:00;;;;;;;;;;;;;;;19.92;51.02;98323.77;618965;229;62944;-72
2023/12/16 04:09:29;;;;;;;;;;;;;;;19.90;50.99;98320.50;618959;229;64625;-71
2023/12/16 04:11:56;;;;;;;;;;;;;;;19.91;50.94;98332.79;618991;229;65879;-71
2023/12/16 04:14:24;;;;;;;;;;;;;;;19.89;50.96;98326.89;618953;229;64958;-71
2023/12/16 04:16:51;;;;;;;;;;;;;;;19.89;50.98;98324.23;618942;229;62350;-71
2023/12/16 04:19:19;;;;;;;;;;;;;;;19.89;51.00;98332.23;618949;229;63087;-71
2023/12/16 04:21:46;;;;;;;;;;;;;;;19.89;50.95;98334.90;618954;229;62781;-71
2023/12/16 04:24:14;;;;;;;;;;;;;;;19.89;51.00;98337.56;618998;229;62590;-72
2023/12/16 04:26:41;;;;;;;;;;;;;;;19.87;50.97;98342.31;618930;229;63978;-71
2023/12/16 04:29:09;;;;;;;;;;;;;;;19.90;51.00;98352.52;618921;229;64168;-71
2023/12/16 04:31:36;;;;;;;;;;;;;;;19.88;50.95;98344.73;618917;229;62382;-71
2023/12/16 04:34:04;;;;;;;;;;;;;;;19.88;50.99;98335.92;618935;229;65485;-71
2023/12/16 04:36:31;;;;;;;;;;;;;;;19.89;51.02;98341.04;618997;229;64985;-71
2023/12/16 04:38:59;;;;;;;;;;;;;;;19.91;50.98;98359.47;618933;229;62531;-71
2023/12/16 04:41:27;;;;;;;;;;;;;;;19.89;50.96;98366.91;618920;229;63901;-71
2023/12/16 04:43:54;;;;;;;;;;;;;;;19.90;50.96;98368.53;618940;229;65192;-71
2023/12/16 04:46:22;;;;;;;;;;;;;;;19.89;50.97;98367.72;618952;229;62396;-71
2023/12/16 04:48:50;;;;;;;;;;;;;;;19.89;51.00;98372.25;618951;229;62831;-71
2023/12/16 04:51:17;;;;;;;;;;;;;;;19.89;50.95;98377.59;618967;229;62977;-71
2023/12/16 04:53:45;;;;;;;;;;;;;;;19.89;51.00;98378.39;618883;229;62399;-71
2023/12/16 04:56:12;;;;;;;;;;;;;;;19.87;51.01;98380.47;618962;229;63261;-71
2023/12/16 04:58:40;;;;;;;;;;;;;;;19.90;50.99;98388.01;618895;229;64781;-71
2023/12/16 05:01:07;;;;;;;;;;;;;;;19.88;50.96;98383.95;618941;229;65782;-71
2023/12/16 05:03:35;;;;;;;;;;;;;;;19.89;50.97;98390.92;618989;229;65577;-71
2023/12/16 05:06:02;;;;;;;;;;;;;;;19.89;50.96;98397.06;618944;229;63079;-71
2023/12/16 05:08:30;;;;;;;;;;;;;;;19.89;50.99;98398.93;618969;229;64541;-71
2023/12/16 05:10:58;;;;;;;;;;;;;;;19.89;50.93;98410.41;618963;229;62794;-71
2023/12/16 05:13:25;;;;;;;;;;;;;;;19.88;50.95;98402.63;618963;229;62722;-71
2023/12/16 05:15:52;;;;;;;;;;;;;;;19.87;50.91;98409.81;619015;229;64473;-71
2023/12/16 05:18:20;;;;;;;;;;;;;;;19.89;50.95;98412.27;618956;229;62667;-71
2023/12/16 05:20:48;;;;;;;;;;;;;;;19.89;50.97;98417.61;618986;229;62723;-71
2023/12/16 05:23:15;;;;;;;;;;;;;;;19.88;50.92;98414.09;618942;229;64546;-71
2023/12/16 05:25:42;;;;;;;;;;;;;;;19.87;50.92;98423.16;618916;229;62736;-71
2023/12/16 05:28:10;;;;;;;;;;;;;;;19.90;50.96;98419.22;619025;229;64811;-71
2023/12/16 05:30:38;;;;;;;;;;;;;;;19.86;50.91;98418.88;618950;229;64579;-71
2023/12/16 05:33:05;;;;;;;;;;;;;;;19.87;50.93;98419.68;618918;229;62643;-71
2023/12/16 05:35:33;;;;;;;;;;;;;;;19.87;50.90;98417.02;618990;229;62919;-71
2023/12/16 05:38:00;;;;;;;;;;;;;;;19.87;51.00;98411.68;618923;229;62474;-71
2023/12/16 05:40:28;;;;;;;;;;;;;;;19.91;50.92;98423.50;618949;229;65398;-71
2023/12/16 05:42:56;;;;;;;;;;;;;;;19.88;50.97;98423.96;618918;229;65430;-71
2023/12/16 05:45:23;;;;;;;;;;;;;;;19.89;50.93;98431.75;618931;229;64569;-71
2023/12/16 05:47:51;;;;;;;;;;;;;;;19.89;50.93;98426.42;618922;229;65389;-71
2023/12/16 05:50:18;;;;;;;;;;;;;;;19.88;50.92;98434.63;618945;229;63781;-71
2023/12/16 05:52:46;;;;;;;;;;;;;;;19.86;50.91;98428.70;618886;229;65158;-71
2023/12/16 05:55:13;;;;;;;;;;;;;;;19.88;50.88;98435.44;618955;227;63023;-71
2023/12/16 05:57:41;;;;;;;;;;;;;;;19.88;50.82;98446.11;618951;229;62762;-71
2023/12/16 06:00:09;;;;;;;;;;;;;;;19.89;50.95;98454.95;618951;229;64574;-71
2023/12/16 06:02:36;;;;;;;;;;;;;;;19.88;50.93;98450.64;618921;229;65149;-71
2023/12/16 06:05:04;;;;;;;;;;;;;;;19.88;50.92;98461.31;618937;229;64919;-71
2023/12/16 06:07:32;;;;;;;;;;;;;;;19.88;50.93;98455.98;618928;229;64642;-71
2023/12/16 06:09:59;;;;;;;;;;;;;;;19.87;50.95;98465.03;618937;229;63258;-71
2023/12/16 06:12:27;;;;;;;;;;;;;;;19.88;50.92;98470.13;618903;229;62904;-71
2023/12/16 06:14:54;;;;;;;;;;;;;;;19.87;50.93;98465.03;618958;229;62456;-72
2023/12/16 06:17:22;;;;;;;;;;;;;;;19.87;50.85;98462.37;618900;229;65477;-71
2023/12/16 06:19:49;;;;;;;;;;;;;;;19.86;50.98;98460.72;618961;229;65098;-71
2023/12/16 06:22:17;;;;;;;;;;;;;;;19.88;50.96;98466.65;618900;229;64696;-71
2023/12/16 06:24:44;;;;;;;;;;;;;;;19.88;50.94;98472.80;618965;229;65443;-72
2023/12/16 06:27:11;;;;;;;;;;;;;;;19.86;50.96;98474.90;618919;229;65224;-72
2023/12/16 06:29:42;;;;;;;;;;;;;;;19.88;50.94;98483.47;618926;229;64566;-72
2023/12/16 06:32:09;;;;;;;;;;;;;;;19.89;50.94;98486.97;618952;229;65471;-72
2023/12/16 06:34:37;;;;;;;;;;;;;;;19.88;50.91;98487.99;618892;229;65123;-72
2023/12/16 06:37:04;;;;;;;;;;;;;;;19.88;50.94;98488.80;618952;229;64531;-72
2023/12/16 06:39:32;;;;;;;;;;;;;;;19.85;50.97;98488.45;618974;229;62971;-72
2023/12/16 06:42:00;;;;;;;;;;;;;;;19.86;50.96;98496.24;618963;229;62647;-72
2023/12/16 06:44:27;;;;;;;;;;;;;;;19.87;50.95;98508.53;619001;229;62400;-71
2023/12/16 06:46:54;;;;;;;;;;;;;;;19.87;50.93;98507.72;618961;229;63140;-71
2023/12/16 06:49:22;;;;;;;;;;;;;;;19.86;50.96;98506.08;618954;229;62745;-71
2023/12/16 06:51:50;;;;;;;;;;;;;;;19.87;50.95;98526.40;618974;229;64566;-72
2023/12/16 06:54:17;;;;;;;;;;;;;;;19.89;50.99;98526.99;618909;227;63058;-72
2023/12/16 06:56:45;;;;;;;;;;;;;;;19.87;50.96;98529.06;618932;229;65470;-72
2023/12/16 06:59:13;;;;;;;;;;;;;;;19.86;50.90;98532.75;619003;229;64538;-71
2023/12/16 07:01:41;;;;;;;;;;;;;;;19.87;50.92;98534.40;618912;229;63102;-71
2023/12/16 07:04:08;;;;;;;;;;;;;;;19.89;50.88;98543.00;618945;229;62917;-71
2023/12/16 07:06:37;;;;;;;;;;;;;;;19.86;50.84;98533.59;618947;229;64516;-71
2023/12/16 07:09:04;;;;;;;;;;;;;;;19.89;50.94;98537.66;618940;229;66226;-71
2023/12/16 07:11:35;;;;;;;;;;;;;;;19.87;50.90;98543.22;618992;229;65058;-70
2023/12/16 07:14:01;;;;;;;;;;;;;;;19.85;50.93;98542.62;618943;229;64778;-70
2023/12/16 07:16:30;;;;;;;;;;;;;;;19.86;50.45;98554.09;618928;229;64970;-71
2023/12/16 07:18:58;;;;;;;;;;;;;;;19.83;50.32;98543.88;618933;229;62905;-71
2023/12/16 07:21:27;;;;;;;;;;;;;;;19.87;50.36;98553.08;618924;229;64428;-72
2023/12/16 07:23:54;;;;;;;;;;;;;;;19.86;50.32;98552.27;618985;229;63174;-71
2023/12/16 07:26:22;;;;;;;;;;;;;;;19.87;50.29;98553.08;618945;229;63010;-71
2023/12/16 07:28:50;;;;;;;;;;;;;;;19.89;50.28;98553.67;618873;229;63355;-72
2023/12/16 07:31:17;;;;;;;;;;;;;;;19.90;50.30;98568.63;618940;229;65190;-72
2023/12/16 07:33:45;;;;;;;;;;;;;;;19.89;50.28;98561.68;618921;229;65003;-72
2023/12/16 07:36:12;;;;;;;;;;;;;;;19.90;50.28;98566.77;618757;229;62637;-72
2023/12/16 07:38:40;;;;;;;;;;;;;;;19.91;50.27;98572.91;618778;229;65388;-72
2023/12/16 07:41:07;;;;;;;;;;;;;;;19.92;50.23;98577.23;618716;229;66197;-72
2023/12/16 07:43:35;;;;;;;;;;;;;;;19.91;50.25;98578.25;618744;229;64568;-72
2023/12/16 07:46:04;;;;;;;;;;;;;;;19.90;50.24;98580.11;618690;229;65599;-72
2023/12/16 07:48:31;;;;;;;;;;;;;;;19.91;50.24;98584.39;618655;229;65084;-72
2023/12/16 07:50:59;;;;;;;;;;;;;;;19.92;50.25;98586.05;618740;229;62419;-72
2023/12/16 07:53:26;;;;;;;;;;;;;;;19.92;50.27;98591.37;618672;229;63095;-72
2023/12/16 07:55:54;;;;;;;;;;;;;;;19.93;50.31;98594.86;623203;227;65113;-72
2023/12/16 07:58:21;;;;;;;;;;;;;;;19.93;50.30;98592.19;623905;227;64569;-72
2023/12/16 08:00:49;;;;;;;;;;;;;;;19.94;50.32;98599.14;623860;227;65703;-72
2023/12/16 08:03:16;;;;;;;;;;;;;;;19.94;50.33;98601.81;623913;227;65180;-72
2023/12/16 08:05:44;;;;;;;;;;;;;;;19.94;50.32;98604.48;623915;227;64847;-72
2023/12/16 08:08:11;;;;;;;;;;;;;;;19.96;50.33;98602.41;623901;227;65406;-72
2023/12/16 08:10:39;;;;;;;;;;;;;;;19.93;50.31;98605.53;620216;227;63314;-80
2023/12/16 08:13:07;;;;;;;;;;;;;;;19.92;50.32;98602.05;620674;227;63482;-79
2023/12/16 08:15:34;;;;;;;;;;;;;;;19.97;50.30;98614.73;620060;227;65496;-73
2023/12/16 08:18:02;;;;;;;;;;;;;;;19.95;50.26;98606.13;619244;227;62993;-71
2023/12/16 08:20:30;;;;;;;;;;;;;;;19.94;50.17;98615.16;618072;227;64666;-71
2023/12/16 08:22:57;;;;;;;;;;;;;;;19.94;50.14;98617.82;618232;227;62975;-72
2023/12/16 08:25:25;;;;;;;;;;;;;;;19.94;49.96;98615.16;619775;227;62917;-72
2023/12/16 08:27:52;;;;;;;;;;;;;;;19.96;49.75;98618.42;622678;227;62479;-72
2023/12/16 08:30:20;;;;;;;;;;;;;;;19.96;49.56;98624.56;620825;227;62898;-71
2023/12/16 08:32:47;;;;;;;;;;;;;;;19.93;49.30;98619.68;620435;227;66581;-71
2023/12/16 08:35:15;;;;;;;;;;;;;;;19.94;49.18;98615.99;616607;230;62444;-71
2023/12/16 08:37:42;;;;;;;;;;;;;;;19.96;49.13;98616.55;616812;230;63262;-71
2023/12/16 08:40:11;;;;;;;;;;;;;;;19.96;48.94;98621.09;617108;230;64945;-71
2023/12/16 08:42:42;;;;;;;;;;;;;;;19.96;48.87;98624.56;617049;230;64772;-71
2023/12/16 08:45:08;;;;;;;;;;;;;;;19.93;48.97;98617.02;616970;230;65391;-72
2023/12/16 08:47:36;;;;;;;;;;;;;;;19.98;48.80;98631.55;617099;230;65285;-71
2023/12/16 08:50:03;;;;;;;;;;;;;;;19.96;48.77;98627.23;617056;230;64552;-72
2023/12/16 08:52:34;;;;;;;;;;;;;;;19.96;48.79;98635.23;617145;230;65540;-71
2023/12/16 08:55:02;;;;;;;;;;;;;;;19.97;48.68;98638.75;614364;230;65260;-71
2023/12/16 08:57:30;;;;;;;;;;;;;;;19.94;48.67;98625.83;611911;232;64707;-71
2023/12/16 08:59:57;;;;;;;;;;;;;;;19.96;48.64;98637.09;611923;232;65442;-71
2023/12/16 09:02:25;;;;;;;;;;;;;;;19.94;48.61;98631.16;611923;232;65401;-71
2023/12/16 09:04:53;;;;;;;;;;;;;;;19.97;48.60;98638.75;612017;232;64766;-71
2023/12/16 09:07:20;;;;;;;;;;;;;;;19.96;48.56;98637.91;611971;232;65500;-72
2023/12/16 09:09:48;;;;;;;;;;;;;;;19.96;48.60;98634.43;611953;232;65072;-72
2023/12/16 09:12:15;;;;;;;;;;;;;;;19.95;48.53;98622.14;611965;232;62424;-72
2023/12/16 09:14:43;;;;;;;;;;;;;;;19.97;48.53;98636.08;611973;232;63048;-71
2023/12/16 09:17:10;;;;;;;;;;;;;;;19.96;48.51;98621.09;612020;232;62432;-69
2023/12/16 09:19:38;;;;;;;;;;;;;;;19.96;48.53;98613.08;612019;232;62517;-69
2023/12/16 09:22:05;;;;;;;;;;;;;;;19.97;48.53;98617.40;611993;232;62778;-69
2023/12/16 09:24:33;;;;;;;;;;;;;;;19.94;48.49;98605.31;611987;232;63000;-69
2023/12/16 09:27:00;;;;;;;;;;;;;;;19.94;48.49;98602.66;611976;232;62470;-69
2023/12/16 09:29:28;;;;;;;;;;;;;;;19.94;48.51;98604.48;611930;232;63157;-69
2023/12/16 09:31:55;;;;;;;;;;;;;;;19.95;48.46;98606.13;612051;232;63693;-69
2023/12/16 09:34:23;;;;;;;;;;;;;;;19.95;48.40;98606.13;611987;232;62536;-71
2023/12/16 09:36:50;;;;;;;;;;;;;;;19.95;48.43;98606.13;611982;232;62660;-71
2023/12/16 09:39:18;;;;;;;;;;;;;;;19.97;48.40;98606.72;611959;232;63009;-71
2023/12/16 09:41:46;;;;;;;;;;;;;;;19.97;48.38;98601.39;611995;232;62363;-71
2023/12/16 09:44:18;;;;;;;;;;;;;;;19.96;48.39;98597.87;611985;232;64956;-71
2023/12/16 09:46:46;;;;;;;;;;;;;;;19.96;48.40;98597.07;611930;232;65400;-70
2023/12/16 09:49:14;;;;;;;;;;;;;;;19.96;48.33;98591.73;611922;232;64640;-70
2023/12/16 09:51:47;;;;;;;;;;;;;;;19.97;48.35;98582.70;611957;232;65853;-70
2023/12/16 09:54:11;;;;;;;;;;;;;;;19.96;48.34;98581.87;611691;230;62613;-70
2023/12/16 09:56:39;;;;;;;;;;;;;;;19.97;48.37;98585.38;611978;232;62713;-70
2023/12/16 09:59:07;;;;;;;;;;;;;;;19.96;48.34;98587.20;611988;232;65326;-70
2023/12/16 10:01:35;;;;;;;;;;;;;;;19.98;48.37;98597.67;611961;232;65185;-70
2023/12/16 10:04:03;;;;;;;;;;;;;;;19.99;48.41;98590.47;611995;232;62723;-70
2023/12/16 10:06:31;;;;;;;;;;;;;;;19.97;48.41;98588.05;612041;232;65384;-70
2023/12/16 10:08:58;;;;;;;;;;;;;;;19.98;48.39;98591.52;611985;232;63243;-70
2023/12/16 10:11:27;;;;;;;;;;;;;;;20.00;48.37;98587.59;612035;232;64739;-70
2023/12/16 10:13:59;;;;;;;;;;;;;;;19.99;48.37;98585.94;612043;232;62939;-70
2023/12/16 10:16:27;;;;;;;;;;;;;;;19.98;48.36;98586.99;612048;232;66287;-71
2023/12/16 10:18:58;;;;;;;;;;;;;;;19.99;48.36;98585.94;612048;232;62405;-71
2023/12/16 10:21:27;;;;;;;;;;;;;;;19.98;48.37;98583.52;612032;232;63228;-72
2023/12/16 10:23:59;;;;;;;;;;;;;;;19.97;48.38;98582.70;612050;232;65257;-70
2023/12/16 10:26:28;;;;;;;;;;;;;;;19.97;48.39;98588.05;613105;229;64756;-71
2023/12/16 10:28:56;;;;;;;;;;;;;;;19.98;48.37;98584.33;613539;229;63302;-71
2023/12/16 10:31:27;;;;;;;;;;;;;;;19.98;48.45;98581.66;615648;229;64720;-71
2023/12/16 10:33:54;;;;;;;;;;;;;;;19.98;48.43;98578.98;614194;229;62538;-71
2023/12/16 10:36:22;;;;;;;;;;;;;;;19.99;48.46;98591.28;615561;229;64252;-71
2023/12/16 10:38:49;;;;;;;;;;;;;;;19.96;48.45;98589.06;618158;229;63227;-71
2023/12/16 10:41:17;;;;;;;;;;;;;;;19.98;48.45;98595.00;618991;229;64442;-71
2023/12/16 10:43:45;;;;;;;;;;;;;;;19.96;48.43;98581.87;618228;229;63152;-71
2023/12/16 10:46:13;;;;;;;;;;;;;;;19.98;48.42;98583.52;618984;229;65007;-71
2023/12/16 10:48:42;;;;;;;;;;;;;;;19.99;48.39;98585.13;618987;229;64822;-71
2023/12/16 10:51:11;;;;;;;;;;;;;;;20.00;48.39;98592.92;618983;229;65782;-71
2023/12/16 10:53:40;;;;;;;;;;;;;;;20.01;48.33;98591.06;619007;229;64866;-70
2023/12/16 10:56:12;;;;;;;;;;;;;;;20.00;48.33;98592.92;619000;227;64550;-71
2023/12/16 10:58:42;;;;;;;;;;;;;;;20.01;48.35;98591.06;616199;229;62844;-70
2023/12/16 11:01:11;;;;;;;;;;;;;;;20.01;48.33;98583.06;618990;229;64951;-70
2023/12/16 11:03:40;;;;;;;;;;;;;;;20.00;48.32;98590.26;618894;228;64655;-71
2023/12/16 11:06:08;;;;;;;;;;;;;;;19.99;48.34;98587.80;618942;228;63210;-71
2023/12/16 11:08:36;;;;;;;;;;;;;;;20.01;48.32;98593.73;618985;229;65016;-71
2023/12/16 11:11:04;;;;;;;;;;;;;;;20.01;48.31;98583.06;619037;229;64572;-71
2023/12/16 11:13:32;;;;;;;;;;;;;;;19.98;48.30;98589.66;618957;229;65682;-71
2023/12/16 11:16:01;;;;;;;;;;;;;;;19.99;48.32;98585.94;619022;229;62989;-71
2023/12/16 11:18:30;;;;;;;;;;;;;;;20.02;48.28;98601.50;618964;228;64585;-71
2023/12/16 11:21:01;;;;;;;;;;;;;;;20.00;48.27;98600.93;619004;229;65370;-71
2023/12/16 11:23:29;;;;;;;;;;;;;;;19.99;48.29;98596.62;618992;229;65493;-70
2023/12/16 11:25:58;;;;;;;;;;;;;;;19.98;48.28;98586.99;619009;229;62711;-70
2023/12/16 11:28:27;;;;;;;;;;;;;;;20.01;48.31;98591.06;618907;228;65549;-70
2023/12/16 11:30:56;;;;;;;;;;;;;;;20.00;48.31;98592.92;618996;229;62838;-71
2023/12/16 11:33:24;;;;;;;;;;;;;;;20.01;48.31;98596.41;619000;229;64929;-70
2023/12/16 11:35:52;;;;;;;;;;;;;;;20.01;48.30;98602.55;619007;229;65540;-70
2023/12/16 11:38:43;;;;;;;;;;;;;;;20.01;48.32;98591.87;618988;229;62995;-70
2023/12/16 11:41:12;;;;;;;;;;;;;;;20.01;48.31;98593.73;618999;229;62701;-71
2023/12/16 11:43:50;;;;;;;;;;;;;;;20.01;48.32;98591.06;618984;229;63003;-70
2023/12/16 11:46:33;;;;;;;;;;;;;;;20.01;48.35;98588.39;619010;229;64871;-70
2023/12/16 11:49:05;;;;;;;;;;;;;;;19.99;48.32;98593.95;619002;229;64759;-71
2023/12/16 11:51:34;;;;;;;;;;;;;;;20.01;48.30;98604.41;619013;229;65419;-71
2023/12/16 11:54:03;;;;;;;;;;;;;;;20.00;48.35;98600.93;618921;227;65690;-71
2023/12/16 11:56:30;;;;;;;;;;;;;;;20.00;48.31;98598.27;618998;229;62419;-71
2023/12/16 11:58:58;;;;;;;;;;;;;;;19.99;48.36;98585.13;619004;229;65379;-71
2023/12/16 12:01:26;;;;;;;;;;;;;;;19.98;48.32;98589.66;618959;229;66150;-71
2023/12/16 12:03:54;;;;;;;;;;;;;;;20.01;48.29;98591.06;619014;229;64582;-71
2023/12/16 12:06:22;;;;;;;;;;;;;;;20.00;48.35;98592.92;618988;229;65487;-71
2023/12/16 12:08:50;;;;;;;;;;;;;;;20.01;48.35;98593.73;619009;229;65222;-71
2023/12/16 12:11:18;;;;;;;;;;;;;;;20.01;48.36;98588.39;619024;229;64609;-71
2023/12/16 12:13:45;;;;;;;;;;;;;;;20.01;48.39;98583.06;618993;229;64616;-71
2023/12/16 12:16:13;;;;;;;;;;;;;;;20.01;48.39;98588.39;618982;229;65215;-71
2023/12/16 12:18:41;;;;;;;;;;;;;;;20.00;48.38;98584.92;618981;229;64794;-71
2023/12/16 12:21:14;;;;;;;;;;;;;;;20.01;48.39;98591.87;618970;229;65737;-71
2023/12/16 12:23:42;;;;;;;;;;;;;;;20.01;48.38;98596.41;618814;228;63910;-71
2023/12/16 12:26:08;;;;;;;;;;;;;;;20.02;48.35;98598.83;618970;228;62355;-71
2023/12/16 12:28:35;;;;;;;;;;;;;;;20.01;48.38;98593.73;618956;229;63268;-71
2023/12/16 12:31:07;;;;;;;;;;;;;;;20.02;48.37;98604.17;619011;229;65120;-71
2023/12/16 12:33:35;;;;;;;;;;;;;;;19.99;48.38;98596.62;619004;229;62424;-71
2023/12/16 12:36:03;;;;;;;;;;;;;;;20.03;48.38;98597.81;618971;229;65662;-71
2023/12/16 12:38:33;;;;;;;;;;;;;;;20.02;48.40;98590.02;619007;229;63075;-71
2023/12/16 12:41:02;;;;;;;;;;;;;;;20.02;48.40;98595.35;618992;229;62632;-71
2023/12/16 12:43:30;;;;;;;;;;;;;;;20.02;48.38;98603.36;618977;229;66473;-71
2023/12/16 12:46:08;;;;;;;;;;;;;;;20.00;48.38;98598.27;618988;229;62950;-71
2023/12/16 12:48:36;;;;;;;;;;;;;;;20.02;48.39;98606.03;618985;229;62489;-72
2023/12/16 12:51:05;;;;;;;;;;;;;;;20.03;48.37;98605.81;619011;229;65512;-70